This is the latest recevied weather packets stored in our database for station/object OH1KK. If no packets are shown the sender has not sent any weather packets the latest 10 day(s).
| Time | Temp. | Humidity | Pressure | Rain* | Wind** | Luminosity | Snow |
|---|---|---|---|---|---|---|---|
| 1778060088 | 7.78° C | 48% | 1000.7 hPa | 0 mm | - | - | - |
| 1778059173 | 7.22° C | 50% | 1000.5 hPa | 0 mm | - | - | - |
| 1778058258 | 7.22° C | 51% | 1000.4 hPa | 0 mm | - | - | - |
| 1778057343 | 7.22° C | 51% | 1000.2 hPa | 0 mm | - | - | - |
| 1778054659 | 6.11° C | 51% | 1000 hPa | 0 mm | - | - | - |
| 1778052890 | 5° C | 54% | 999.4 hPa | 0 mm | - | - | - |
| 1778051975 | 5.56° C | 53% | 999.3 hPa | 0 mm | - | - | - |
| 1778049291 | 5° C | 60% | 999 hPa | 0 mm | - | - | - |
| 1778048376 | 5° C | 60% | 998.7 hPa | 0 mm | - | - | - |
| 1778046546 | 4.44° C | 62% | 998.6 hPa | 0 mm | - | - | - |
| 1778045692 | 3.89° C | 65% | 998.5 hPa | 0 mm | - | - | - |
| 1778044776 | 3.33° C | 66% | 998.2 hPa | 0 mm | - | - | - |
| 1778043868 | 3.33° C | 68% | 998 hPa | 0 mm | - | - | - |
| 1778042946 | 3.33° C | 68% | 998.1 hPa | 0 mm | - | - | - |
| 1778042092 | 2.78° C | 70% | 998.1 hPa | 0 mm | - | - | - |
| 1778040262 | 2.22° C | 72% | 997.7 hPa | 0 mm | - | - | - |
| 1778039347 | 1.67° C | 74% | 997.6 hPa | 0 mm | - | - | - |
| 1778038493 | 1.11° C | 75% | 997.3 hPa | 0 mm | - | - | - |
| 1778036662 | 0.56° C | 78% | 997.1 hPa | 0 mm | - | - | - |
| 1778035748 | 0° C | 79% | 997.2 hPa | 0 mm | - | - | - |
| 1778033979 | -0.56° C | 80% | 997 hPa | 0 mm | - | - | - |
| 1778033064 | 0° C | 79% | 996.8 hPa | 0 mm | - | - | - |
| 1778032149 | 0° C | 79% | 996.8 hPa | 0 mm | - | - | - |
| 1778031295 | 0° C | 78% | 996.6 hPa | 0 mm | - | - | - |
| 1778030380 | 0° C | 78% | 996.4 hPa | 0 mm | - | - | - |
* Rain latest hour (hover to see other rain measurements)
** Current wind speed in m/s (hover to see current wind gust speed)